sensor_id;sensor_type;location;lat;lon;timestamp;pressure;altitude;pressure_sealevel;temperature;humidity
49813;BME280;35706;52.100;5.056;2023-03-13T00:00:35;100068.00;;;9.45;100.00
49813;BME280;35706;52.100;5.056;2023-03-13T00:01:41;100073.16;;;9.36;100.00
49813;BME280;35706;52.100;5.056;2023-03-13T00:02:41;100056.19;;;9.31;100.00
49813;BME280;35706;52.100;5.056;2023-03-13T00:03:44;100059.66;;;9.31;100.00
49813;BME280;35706;52.100;5.056;2023-03-13T00:04:45;100054.78;;;9.36;100.00
49813;BME280;35706;52.100;5.056;2023-03-13T00:05:45;100045.66;;;9.41;100.00
49813;BME280;35706;52.100;5.056;2023-03-13T00:06:45;100051.13;;;9.47;100.00
49813;BME280;35706;52.100;5.056;2023-03-13T00:07:45;100051.47;;;9.34;100.00
49813;BME280;35706;52.100;5.056;2023-03-13T00:08:46;100056.00;;;9.42;100.00
49813;BME280;35706;52.100;5.056;2023-03-13T00:09:46;100057.41;;;9.36;100.00
49813;BME280;35706;52.100;5.056;2023-03-13T00:10:46;100046.88;;;9.46;100.00
49813;BME280;35706;52.100;5.056;2023-03-13T00:11:47;100056.38;;;9.47;100.00
49813;BME280;35706;52.100;5.056;2023-03-13T00:12:47;100045.75;;;9.49;100.00
49813;BME280;35706;52.100;5.056;2023-03-13T00:13:47;100049.63;;;9.45;100.00
49813;BME280;35706;52.100;5.056;2023-03-13T00:14:48;100039.13;;;9.45;100.00
49813;BME280;35706;52.100;5.056;2023-03-13T00:15:48;100030.94;;;9.30;100.00
49813;BME280;35706;52.100;5.056;2023-03-13T00:16:48;100038.75;;;9.40;100.00
49813;BME280;35706;52.100;5.056;2023-03-13T00:17:49;100033.25;;;9.33;100.00
49813;BME280;35706;52.100;5.056;2023-03-13T00:18:51;100032.75;;;9.47;100.00
49813;BME280;35706;52.100;5.056;2023-03-13T00:19:51;100029.09;;;9.40;100.00
49813;BME280;35706;52.100;5.056;2023-03-13T00:21:06;100037.59;;;9.24;100.00
49813;BME280;35706;52.100;5.056;2023-03-13T00:22:06;100020.22;;;9.23;100.00
49813;BME280;35706;52.100;5.056;2023-03-13T00:23:07;100006.31;;;9.41;100.00
49813;BME280;35706;52.100;5.056;2023-03-13T00:24:09;100014.72;;;9.44;100.00
49813;BME280;35706;52.100;5.056;2023-03-13T00:25:10;100014.63;;;9.36;100.00
49813;BME280;35706;52.100;5.056;2023-03-13T00:26:12;100006.09;;;9.34;100.00
49813;BME280;35706;52.100;5.056;2023-03-13T00:27:13;100001.56;;;9.26;100.00
49813;BME280;35706;52.100;5.056;2023-03-13T00:28:13;100016.94;;;9.21;100.00
49813;BME280;35706;52.100;5.056;2023-03-13T00:29:13;100000.34;;;9.21;100.00
49813;BME280;35706;52.100;5.056;2023-03-13T00:30:14;100006.28;;;9.23;100.00
49813;BME280;35706;52.100;5.056;2023-03-13T00:31:23;99991.22;;;9.25;100.00
49813;BME280;35706;52.100;5.056;2023-03-13T00:32:23;99980.13;;;9.31;100.00
49813;BME280;35706;52.100;5.056;2023-03-13T00:33:24;99977.97;;;9.26;100.00
49813;BME280;35706;52.100;5.056;2023-03-13T00:34:24;99970.09;;;9.26;100.00
49813;BME280;35706;52.100;5.056;2023-03-13T00:35:26;99977.50;;;9.31;100.00
49813;BME280;35706;52.100;5.056;2023-03-13T00:36:29;99969.38;;;9.34;100.00
49813;BME280;35706;52.100;5.056;2023-03-13T00:37:30;99974.66;;;9.24;100.00
49813;BME280;35706;52.100;5.056;2023-03-13T00:38:31;99977.28;;;9.24;100.00
49813;BME280;35706;52.100;5.056;2023-03-13T00:39:31;99977.69;;;9.29;100.00
49813;BME280;35706;52.100;5.056;2023-03-13T00:40:32;99977.00;;;9.27;100.00
49813;BME280;35706;52.100;5.056;2023-03-13T00:41:32;99961.56;;;9.24;100.00
49813;BME280;35706;52.100;5.056;2023-03-13T00:42:33;99963.66;;;9.21;100.00
49813;BME280;35706;52.100;5.056;2023-03-13T00:43:34;99964.50;;;9.21;100.00
49813;BME280;35706;52.100;5.056;2023-03-13T00:44:34;99959.91;;;9.23;100.00
49813;BME280;35706;52.100;5.056;2023-03-13T00:45:34;99948.09;;;9.19;100.00
49813;BME280;35706;52.100;5.056;2023-03-13T00:46:35;99939.97;;;9.30;100.00
49813;BME280;35706;52.100;5.056;2023-03-13T00:47:36;99962.09;;;9.28;100.00
49813;BME280;35706;52.100;5.056;2023-03-13T00:48:37;99956.16;;;9.26;100.00
49813;BME280;35706;52.100;5.056;2023-03-13T00:49:37;99934.38;;;9.25;100.00
49813;BME280;35706;52.100;5.056;2023-03-13T00:50:37;99931.84;;;9.33;100.00
49813;BME280;35706;52.100;5.056;2023-03-13T00:51:38;99935.41;;;9.32;100.00
49813;BME280;35706;52.100;5.056;2023-03-13T00:52:38;99919.59;;;9.24;100.00
49813;BME280;35706;52.100;5.056;2023-03-13T00:53:38;99918.66;;;9.25;100.00
49813;BME280;35706;52.100;5.056;2023-03-13T00:54:38;99935.09;;;9.35;100.00
49813;BME280;35706;52.100;5.056;2023-03-13T00:55:56;99924.38;;;9.29;100.00
49813;BME280;35706;52.100;5.056;2023-03-13T00:56:57;99918.31;;;9.28;100.00
49813;BME280;35706;52.100;5.056;2023-03-13T00:58:00;99911.00;;;9.32;100.00
49813;BME280;35706;52.100;5.056;2023-03-13T00:59:01;99907.47;;;9.41;100.00
49813;BME280;35706;52.100;5.056;2023-03-13T01:00:03;99920.28;;;9.44;100.00
49813;BME280;35706;52.100;5.056;2023-03-13T01:02:07;99909.94;;;9.43;100.00
49813;BME280;35706;52.100;5.056;2023-03-13T01:03:08;99917.88;;;9.33;100.00
49813;BME280;35706;52.100;5.056;2023-03-13T01:04:10;99905.59;;;9.33;100.00
49813;BME280;35706;52.100;5.056;2023-03-13T01:05:11;99918.88;;;9.32;100.00
49813;BME280;35706;52.100;5.056;2023-03-13T01:06:14;99928.16;;;9.26;100.00
49813;BME280;35706;52.100;5.056;2023-03-13T01:07:15;99894.06;;;9.26;100.00
49813;BME280;35706;52.100;5.056;2023-03-13T01:08:15;99895.75;;;9.35;100.00
49813;BME280;35706;52.100;5.056;2023-03-13T01:09:16;99897.44;;;9.36;100.00
49813;BME280;35706;52.100;5.056;2023-03-13T01:10:16;99910.69;;;9.35;100.00
49813;BME280;35706;52.100;5.056;2023-03-13T01:11:20;99893.44;;;9.32;100.00
49813;BME280;35706;52.100;5.056;2023-03-13T01:12:21;99881.38;;;9.40;100.00
49813;BME280;35706;52.100;5.056;2023-03-13T01:13:21;99905.38;;;9.45;100.00
49813;BME280;35706;52.100;5.056;2023-03-13T01:14:21;99896.06;;;9.50;100.00
49813;BME280;35706;52.100;5.056;2023-03-13T01:15:22;99888.34;;;9.49;100.00
49813;BME280;35706;52.100;5.056;2023-03-13T01:16:24;99890.28;;;9.47;100.00
49813;BME280;35706;52.100;5.056;2023-03-13T01:17:25;99871.47;;;9.51;100.00
49813;BME280;35706;52.100;5.056;2023-03-13T01:18:25;99889.84;;;9.51;100.00
49813;BME280;35706;52.100;5.056;2023-03-13T01:19:25;99893.06;;;9.45;100.00
49813;BME280;35706;52.100;5.056;2023-03-13T01:20:28;99879.94;;;9.45;100.00
49813;BME280;35706;52.100;5.056;2023-03-13T01:21:28;99875.69;;;9.44;100.00
49813;BME280;35706;52.100;5.056;2023-03-13T01:22:29;99880.63;;;9.47;100.00
49813;BME280;35706;52.100;5.056;2023-03-13T01:23:30;99858.28;;;9.43;100.00
49813;BME280;35706;52.100;5.056;2023-03-13T01:24:30;99865.69;;;9.48;100.00
49813;BME280;35706;52.100;5.056;2023-03-13T01:25:30;99868.25;;;9.40;100.00
49813;BME280;35706;52.100;5.056;2023-03-13T01:26:31;99843.84;;;9.39;100.00
49813;BME280;35706;52.100;5.056;2023-03-13T01:27:31;99854.59;;;9.54;100.00
49813;BME280;35706;52.100;5.056;2023-03-13T01:28:32;99846.25;;;9.58;100.00
49813;BME280;35706;52.100;5.056;2023-03-13T01:29:33;99842.94;;;9.48;100.00
49813;BME280;35706;52.100;5.056;2023-03-13T01:30:33;99841.81;;;9.51;100.00
49813;BME280;35706;52.100;5.056;2023-03-13T01:31:34;99845.56;;;9.48;100.00
49813;BME280;35706;52.100;5.056;2023-03-13T01:32:35;99828.38;;;9.54;100.00
49813;BME280;35706;52.100;5.056;2023-03-13T01:33:35;99827.41;;;9.55;100.00
49813;BME280;35706;52.100;5.056;2023-03-13T01:34:35;99831.97;;;9.53;100.00
49813;BME280;35706;52.100;5.056;2023-03-13T01:35:36;99818.19;;;9.51;100.00
49813;BME280;35706;52.100;5.056;2023-03-13T01:36:36;99824.25;;;9.51;100.00
49813;BME280;35706;52.100;5.056;2023-03-13T01:37:37;99816.38;;;9.51;100.00
49813;BME280;35706;52.100;5.056;2023-03-13T01:38:38;99824.59;;;9.56;100.00
49813;BME280;35706;52.100;5.056;2023-03-13T01:39:38;99814.81;;;9.67;100.00
49813;BME280;35706;52.100;5.056;2023-03-13T01:40:44;99815.81;;;9.66;100.00
49813;BME280;35706;52.100;5.056;2023-03-13T01:41:45;99824.97;;;9.62;100.00
49813;BME280;35706;52.100;5.056;2023-03-13T01:42:52;99832.38;;;9.66;100.00
49813;BME280;35706;52.100;5.056;2023-03-13T01:43:53;99826.31;;;9.66;100.00
49813;BME280;35706;52.100;5.056;2023-03-13T01:44:57;99814.00;;;9.66;100.00
49813;BME280;35706;52.100;5.056;2023-03-13T01:47:00;99810.44;;;9.67;100.00
49813;BME280;35706;52.100;5.056;2023-03-13T01:48:00;99809.09;;;9.71;100.00
49813;BME280;35706;52.100;5.056;2023-03-13T01:49:05;99803.03;;;9.71;100.00
49813;BME280;35706;52.100;5.056;2023-03-13T01:50:07;99814.88;;;9.75;100.00
49813;BME280;35706;52.100;5.056;2023-03-13T01:51:15;99782.56;;;9.74;100.00
49813;BME280;35706;52.100;5.056;2023-03-13T01:52:25;99829.00;;;9.74;100.00
49813;BME280;35706;52.100;5.056;2023-03-13T01:53:27;99803.09;;;9.79;100.00
49813;BME280;35706;52.100;5.056;2023-03-13T01:55:49;99802.13;;;9.80;100.00
49813;BME280;35706;52.100;5.056;2023-03-13T01:58:02;99781.28;;;9.78;100.00
49813;BME280;35706;52.100;5.056;2023-03-13T01:59:07;99800.97;;;9.83;100.00
49813;BME280;35706;52.100;5.056;2023-03-13T02:00:17;99785.72;;;9.86;100.00
49813;BME280;35706;52.100;5.056;2023-03-13T02:01:19;99770.44;;;9.82;100.00
49813;BME280;35706;52.100;5.056;2023-03-13T02:02:20;99773.75;;;9.84;100.00
49813;BME280;35706;52.100;5.056;2023-03-13T02:03:22;99767.69;;;9.83;100.00
49813;BME280;35706;52.100;5.056;2023-03-13T02:04:23;99755.38;;;9.84;100.00
49813;BME280;35706;52.100;5.056;2023-03-13T02:05:27;99743.91;;;9.85;100.00
49813;BME280;35706;52.100;5.056;2023-03-13T02:06:30;99753.13;;;9.89;100.00
49813;BME280;35706;52.100;5.056;2023-03-13T02:07:37;99751.81;;;9.93;100.00
49813;BME280;35706;52.100;5.056;2023-03-13T02:08:48;99729.16;;;9.92;100.00
49813;BME280;35706;52.100;5.056;2023-03-13T02:09:51;99741.81;;;9.96;100.00
49813;BME280;35706;52.100;5.056;2023-03-13T02:10:57;99743.28;;;9.91;100.00
49813;BME280;35706;52.100;5.056;2023-03-13T02:12:25;99743.63;;;9.96;100.00
49813;BME280;35706;52.100;5.056;2023-03-13T02:13:28;99714.88;;;9.94;100.00
49813;BME280;35706;52.100;5.056;2023-03-13T02:14:32;99729.00;;;9.93;100.00
49813;BME280;35706;52.100;5.056;2023-03-13T02:15:34;99730.63;;;9.94;100.00
49813;BME280;35706;52.100;5.056;2023-03-13T02:16:35;99736.22;;;9.91;100.00
49813;BME280;35706;52.100;5.056;2023-03-13T02:17:37;99725.56;;;9.93;100.00
49813;BME280;35706;52.100;5.056;2023-03-13T02:18:37;99725.38;;;9.94;100.00
49813;BME280;35706;52.100;5.056;2023-03-13T02:19:42;99721.13;;;9.93;100.00
49813;BME280;35706;52.100;5.056;2023-03-13T02:20:43;99735.75;;;9.96;100.00
49813;BME280;35706;52.100;5.056;2023-03-13T02:21:55;99703.94;;;9.99;100.00
49813;BME280;35706;52.100;5.056;2023-03-13T02:23:08;99693.88;;;9.94;100.00
49813;BME280;35706;52.100;5.056;2023-03-13T02:24:21;99721.66;;;9.97;100.00
49813;BME280;35706;52.100;5.056;2023-03-13T02:26:34;99706.34;;;9.92;100.00
49813;BME280;35706;52.100;5.056;2023-03-13T02:27:34;99714.44;;;9.99;100.00
49813;BME280;35706;52.100;5.056;2023-03-13T02:28:36;99715.06;;;10.01;100.00
49813;BME280;35706;52.100;5.056;2023-03-13T02:29:39;99700.81;;;10.04;100.00
49813;BME280;35706;52.100;5.056;2023-03-13T02:30:42;99705.59;;;10.08;100.00
49813;BME280;35706;52.100;5.056;2023-03-13T02:31:46;99712.00;;;10.06;100.00
49813;BME280;35706;52.100;5.056;2023-03-13T02:32:46;99701.63;;;10.04;100.00
49813;BME280;35706;52.100;5.056;2023-03-13T02:33:47;99699.81;;;10.05;100.00
49813;BME280;35706;52.100;5.056;2023-03-13T02:34:49;99694.94;;;10.10;100.00
49813;BME280;35706;52.100;5.056;2023-03-13T02:35:52;99693.13;;;10.10;100.00
49813;BME280;35706;52.100;5.056;2023-03-13T02:36:53;99708.53;;;10.13;100.00
49813;BME280;35706;52.100;5.056;2023-03-13T02:37:56;99698.22;;;10.20;100.00
49813;BME280;35706;52.100;5.056;2023-03-13T02:39:01;99721.38;;;10.16;100.00
49813;BME280;35706;52.100;5.056;2023-03-13T02:40:10;99692.66;;;10.23;100.00
49813;BME280;35706;52.100;5.056;2023-03-13T02:41:12;99706.44;;;10.25;100.00
49813;BME280;35706;52.100;5.056;2023-03-13T02:42:14;99698.22;;;10.28;100.00
49813;BME280;35706;52.100;5.056;2023-03-13T02:43:32;99698.22;;;10.28;100.00
49813;BME280;35706;52.100;5.056;2023-03-13T02:44:38;99679.38;;;10.25;100.00
49813;BME280;35706;52.100;5.056;2023-03-13T02:45:38;99681.00;;;10.26;100.00
49813;BME280;35706;52.100;5.056;2023-03-13T02:46:47;99689.69;;;10.26;100.00
49813;BME280;35706;52.100;5.056;2023-03-13T02:47:49;99689.91;;;10.33;100.00
49813;BME280;35706;52.100;5.056;2023-03-13T02:48:52;99700.56;;;10.31;100.00
49813;BME280;35706;52.100;5.056;2023-03-13T02:49:52;99692.19;;;10.36;100.00
49813;BME280;35706;52.100;5.056;2023-03-13T02:50:52;99695.50;;;10.38;100.00
49813;BME280;35706;52.100;5.056;2023-03-13T02:51:59;99676.94;;;10.48;100.00
49813;BME280;35706;52.100;5.056;2023-03-13T02:53:04;99696.47;;;10.45;100.00
49813;BME280;35706;52.100;5.056;2023-03-13T02:54:13;99680.41;;;10.48;100.00
49813;BME280;35706;52.100;5.056;2023-03-13T02:55:20;99694.19;;;10.58;100.00
49813;BME280;35706;52.100;5.056;2023-03-13T02:56:25;99682.69;;;10.51;100.00
49813;BME280;35706;52.100;5.056;2023-03-13T02:57:26;99718.50;;;10.61;100.00
49813;BME280;35706;52.100;5.056;2023-03-13T02:58:26;99709.31;;;10.65;100.00
49813;BME280;35706;52.100;5.056;2023-03-13T02:59:27;99707.50;;;10.65;100.00
49813;BME280;35706;52.100;5.056;2023-03-13T03:00:27;99687.13;;;10.67;100.00
49813;BME280;35706;52.100;5.056;2023-03-13T03:01:27;99700.28;;;10.67;100.00
49813;BME280;35706;52.100;5.056;2023-03-13T03:02:27;99686.13;;;10.68;100.00
49813;BME280;35706;52.100;5.056;2023-03-13T03:03:28;99686.63;;;10.72;100.00
49813;BME280;35706;52.100;5.056;2023-03-13T03:04:29;99684.00;;;10.80;100.00
49813;BME280;35706;52.100;5.056;2023-03-13T03:05:29;99704.03;;;10.81;100.00
49813;BME280;35706;52.100;5.056;2023-03-13T03:06:29;99700.88;;;10.94;100.00
49813;BME280;35706;52.100;5.056;2023-03-13T03:07:30;99677.56;;;10.91;100.00
49813;BME280;35706;52.100;5.056;2023-03-13T03:08:30;99689.91;;;10.90;100.00
49813;BME280;35706;52.100;5.056;2023-03-13T03:09:30;99698.09;;;10.95;100.00
49813;BME280;35706;52.100;5.056;2023-03-13T03:10:31;99717.16;;;10.97;100.00
49813;BME280;35706;52.100;5.056;2023-03-13T03:11:31;99692.19;;;11.02;100.00
49813;BME280;35706;52.100;5.056;2023-03-13T03:12:31;99678.06;;;10.94;100.00
49813;BME280;35706;52.100;5.056;2023-03-13T03:13:32;99721.25;;;11.00;100.00
49813;BME280;35706;52.100;5.056;2023-03-13T03:14:32;99680.00;;;11.00;100.00
49813;BME280;35706;52.100;5.056;2023-03-13T03:15:33;99679.38;;;10.98;100.00
49813;BME280;35706;52.100;5.056;2023-03-13T03:16:33;99688.88;;;10.99;100.00
49813;BME280;35706;52.100;5.056;2023-03-13T03:17:33;99721.75;;;11.04;100.00
49813;BME280;35706;52.100;5.056;2023-03-13T03:18:35;99678.69;;;11.05;100.00
49813;BME280;35706;52.100;5.056;2023-03-13T03:19:35;99674.75;;;11.00;100.00
49813;BME280;35706;52.100;5.056;2023-03-13T03:20:36;99673.94;;;11.00;100.00
49813;BME280;35706;52.100;5.056;2023-03-13T03:21:36;99686.91;;;11.02;100.00
49813;BME280;35706;52.100;5.056;2023-03-13T03:22:38;99674.75;;;11.00;100.00
49813;BME280;35706;52.100;5.056;2023-03-13T03:23:39;99670.13;;;11.03;100.00
49813;BME280;35706;52.100;5.056;2023-03-13T03:24:40;99673.91;;;11.08;100.00
49813;BME280;35706;52.100;5.056;2023-03-13T03:25:40;99673.75;;;11.10;100.00
49813;BME280;35706;52.100;5.056;2023-03-13T03:26:40;99669.81;;;11.06;100.00
49813;BME280;35706;52.100;5.056;2023-03-13T03:27:41;99681.00;;;11.08;100.00
49813;BME280;35706;52.100;5.056;2023-03-13T03:28:41;99665.88;;;11.10;100.00
49813;BME280;35706;52.100;5.056;2023-03-13T03:29:41;99685.09;;;11.10;100.00
49813;BME280;35706;52.100;5.056;2023-03-13T03:30:42;99662.75;;;11.06;100.00
49813;BME280;35706;52.100;5.056;2023-03-13T03:31:42;99657.97;;;11.10;100.00
49813;BME280;35706;52.100;5.056;2023-03-13T03:32:42;99669.16;;;11.12;100.00
49813;BME280;35706;52.100;5.056;2023-03-13T03:33:43;99670.97;;;11.11;100.00
49813;BME280;35706;52.100;5.056;2023-03-13T03:34:44;99672.59;;;11.12;100.00
49813;BME280;35706;52.100;5.056;2023-03-13T03:35:44;99676.53;;;11.16;100.00
49813;BME280;35706;52.100;5.056;2023-03-13T03:36:45;99674.72;;;11.17;100.00
49813;BME280;35706;52.100;5.056;2023-03-13T03:37:45;99671.28;;;11.16;100.00
49813;BME280;35706;52.100;5.056;2023-03-13T03:38:46;99683.59;;;11.16;100.00
49813;BME280;35706;52.100;5.056;2023-03-13T03:39:46;99671.44;;;11.15;100.00
49813;BME280;35706;52.100;5.056;2023-03-13T03:40:46;99660.41;;;11.19;100.00
49813;BME280;35706;52.100;5.056;2023-03-13T03:41:46;99666.81;;;11.17;100.00
49813;BME280;35706;52.100;5.056;2023-03-13T03:42:47;99660.59;;;11.18;100.00
49813;BME280;35706;52.100;5.056;2023-03-13T03:43:47;99659.75;;;11.17;100.00
49813;BME280;35706;52.100;5.056;2023-03-13T03:44:48;99657.59;;;11.21;100.00
49813;BME280;35706;52.100;5.056;2023-03-13T03:45:48;99674.03;;;11.23;100.00
49813;BME280;35706;52.100;5.056;2023-03-13T03:46:48;99647.91;;;11.21;100.00
49813;BME280;35706;52.100;5.056;2023-03-13T03:47:49;99646.94;;;11.23;100.00
49813;BME280;35706;52.100;5.056;2023-03-13T03:48:49;99661.53;;;11.25;100.00
49813;BME280;35706;52.100;5.056;2023-03-13T03:49:49;99647.41;;;11.26;100.00
49813;BME280;35706;52.100;5.056;2023-03-13T03:50:50;99642.97;;;11.27;100.00
49813;BME280;35706;52.100;5.056;2023-03-13T03:51:50;99648.06;;;11.28;100.00
49813;BME280;35706;52.100;5.056;2023-03-13T03:52:51;99664.97;;;11.26;100.00
49813;BME280;35706;52.100;5.056;2023-03-13T03:53:52;99649.84;;;11.28;100.00
49813;BME280;35706;52.100;5.056;2023-03-13T03:54:52;99657.09;;;11.26;100.00
49813;BME280;35706;52.100;5.056;2023-03-13T03:55:53;99629.97;;;11.25;100.00
49813;BME280;35706;52.100;5.056;2023-03-13T03:56:54;99634.72;;;11.30;100.00
49813;BME280;35706;52.100;5.056;2023-03-13T03:57:54;99649.84;;;11.28;100.00
49813;BME280;35706;52.100;5.056;2023-03-13T03:58:55;99640.50;;;11.25;100.00
49813;BME280;35706;52.100;5.056;2023-03-13T03:59:55;99636.53;;;11.29;100.00
49813;BME280;35706;52.100;5.056;2023-03-13T04:00:56;99649.72;;;11.21;100.00
49813;BME280;35706;52.100;5.056;2023-03-13T04:01:57;99648.72;;;11.30;100.00
49813;BME280;35706;52.100;5.056;2023-03-13T04:02:57;99657.22;;;11.32;100.00
49813;BME280;35706;52.100;5.056;2023-03-13T04:03:57;99638.00;;;11.32;100.00
49813;BME280;35706;52.100;5.056;2023-03-13T04:04:57;99623.03;;;11.32;100.00
49813;BME280;35706;52.100;5.056;2023-03-13T04:05:58;99614.31;;;11.32;100.00
49813;BME280;35706;52.100;5.056;2023-03-13T04:06:58;99634.84;;;11.36;100.00
49813;BME280;35706;52.100;5.056;2023-03-13T04:07:58;99627.81;;;11.37;100.00
49813;BME280;35706;52.100;5.056;2023-03-13T04:08:59;99618.38;;;11.43;100.00
49813;BME280;35706;52.100;5.056;2023-03-13T04:09:59;99639.63;;;11.41;100.00
49813;BME280;35706;52.100;5.056;2023-03-13T04:11:00;99625.81;;;11.39;100.00
49813;BME280;35706;52.100;5.056;2023-03-13T04:12:00;99646.53;;;11.42;100.00
49813;BME280;35706;52.100;5.056;2023-03-13T04:13:01;99629.91;;;11.41;100.00
49813;BME280;35706;52.100;5.056;2023-03-13T04:14:01;99627.13;;;11.43;100.00
49813;BME280;35706;52.100;5.056;2023-03-13T04:15:02;99620.84;;;11.44;100.00
49813;BME280;35706;52.100;5.056;2023-03-13T04:16:07;99631.53;;;11.43;100.00
49813;BME280;35706;52.100;5.056;2023-03-13T04:17:07;99613.44;;;11.48;100.00
49813;BME280;35706;52.100;5.056;2023-03-13T04:18:08;99630.22;;;11.47;100.00
49813;BME280;35706;52.100;5.056;2023-03-13T04:19:08;99628.44;;;11.47;100.00
49813;BME280;35706;52.100;5.056;2023-03-13T04:20:09;99633.16;;;11.52;100.00
49813;BME280;35706;52.100;5.056;2023-03-13T04:21:10;99609.66;;;11.50;100.00
49813;BME280;35706;52.100;5.056;2023-03-13T04:22:10;99619.69;;;11.47;100.00
49813;BME280;35706;52.100;5.056;2023-03-13T04:23:11;99606.19;;;11.50;100.00
49813;BME280;35706;52.100;5.056;2023-03-13T04:24:11;99606.38;;;11.48;100.00
49813;BME280;35706;52.100;5.056;2023-03-13T04:25:12;99615.56;;;11.52;100.00
49813;BME280;35706;52.100;5.056;2023-03-13T04:26:12;99602.88;;;11.56;100.00
49813;BME280;35706;52.100;5.056;2023-03-13T04:27:12;99614.06;;;11.58;100.00
49813;BME280;35706;52.100;5.056;2023-03-13T04:28:12;99589.53;;;11.57;100.00
49813;BME280;35706;52.100;5.056;2023-03-13T04:29:13;99610.59;;;11.57;100.00
49813;BME280;35706;52.100;5.056;2023-03-13T04:30:13;99605.53;;;11.56;100.00
49813;BME280;35706;52.100;5.056;2023-03-13T04:31:14;99608.16;;;11.56;100.00
49813;BME280;35706;52.100;5.056;2023-03-13T04:32:14;99603.53;;;11.58;100.00
49813;BME280;35706;52.100;5.056;2023-03-13T04:33:14;99613.41;;;11.56;100.00
49813;BME280;35706;52.100;5.056;2023-03-13T04:34:14;99599.94;;;11.51;100.00
49813;BME280;35706;52.100;5.056;2023-03-13T04:35:15;99617.84;;;11.55;100.00
49813;BME280;35706;52.100;5.056;2023-03-13T04:36:15;99600.91;;;11.58;100.00
49813;BME280;35706;52.100;5.056;2023-03-13T04:37:15;99597.31;;;11.51;100.00
49813;BME280;35706;52.100;5.056;2023-03-13T04:38:16;99603.56;;;11.50;100.00
49813;BME280;35706;52.100;5.056;2023-03-13T04:39:16;99590.53;;;11.56;100.00
49813;BME280;35706;52.100;5.056;2023-03-13T04:40:17;99588.72;;;11.57;100.00
49813;BME280;35706;52.100;5.056;2023-03-13T04:41:17;99599.41;;;11.55;100.00
49813;BME280;35706;52.100;5.056;2023-03-13T04:42:17;99618.47;;;11.57;100.00
49813;BME280;35706;52.100;5.056;2023-03-13T04:43:17;99604.34;;;11.58;100.00
49813;BME280;35706;52.100;5.056;2023-03-13T04:44:18;99622.25;;;11.63;100.00
49813;BME280;35706;52.100;5.056;2023-03-13T04:45:18;99591.84;;;11.60;100.00
49813;BME280;35706;52.100;5.056;2023-03-13T04:46:19;99573.06;;;11.64;100.00
49813;BME280;35706;52.100;5.056;2023-03-13T04:47:19;99589.03;;;11.62;100.00
49813;BME280;35706;52.100;5.056;2023-03-13T04:48:20;99583.78;;;11.62;100.00
49813;BME280;35706;52.100;5.056;2023-03-13T04:49:20;99578.97;;;11.66;100.00
49813;BME280;35706;52.100;5.056;2023-03-13T04:50:20;99579.44;;;11.69;100.00
49813;BME280;35706;52.100;5.056;2023-03-13T04:51:21;99607.75;;;11.67;100.00
49813;BME280;35706;52.100;5.056;2023-03-13T04:52:21;99599.81;;;11.75;100.00
49813;BME280;35706;52.100;5.056;2023-03-13T04:53:21;99608.69;;;11.74;100.00
49813;BME280;35706;52.100;5.056;2023-03-13T04:54:22;99602.78;;;11.72;100.00
49813;BME280;35706;52.100;5.056;2023-03-13T04:55:22;99602.59;;;11.74;100.00
49813;BME280;35706;52.100;5.056;2023-03-13T04:56:24;99592.38;;;11.79;100.00
49813;BME280;35706;52.100;5.056;2023-03-13T04:57:25;99616.53;;;11.82;100.00
49813;BME280;35706;52.100;5.056;2023-03-13T04:58:25;99597.94;;;11.84;100.00
49813;BME280;35706;52.100;5.056;2023-03-13T04:59:25;99594.38;;;11.77;100.00
49813;BME280;35706;52.100;5.056;2023-03-13T05:00:26;99592.50;;;11.86;100.00
49813;BME280;35706;52.100;5.056;2023-03-13T05:01:26;99587.72;;;11.89;100.00
49813;BME280;35706;52.100;5.056;2023-03-13T05:02:26;99587.72;;;11.89;100.00
49813;BME280;35706;52.100;5.056;2023-03-13T05:03:27;99591.19;;;11.90;100.00
49813;BME280;35706;52.100;5.056;2023-03-13T05:04:27;99577.19;;;11.89;100.00
49813;BME280;35706;52.100;5.056;2023-03-13T05:05:27;99615.06;;;11.80;100.00
49813;BME280;35706;52.100;5.056;2023-03-13T05:06:27;99597.13;;;11.84;100.00
49813;BME280;35706;52.100;5.056;2023-03-13T05:07:28;99581.78;;;11.87;100.00
49813;BME280;35706;52.100;5.056;2023-03-13T05:08:28;99575.88;;;11.85;100.00
49813;BME280;35706;52.100;5.056;2023-03-13T05:09:28;99607.66;;;11.84;100.00
49813;BME280;35706;52.100;5.056;2023-03-13T05:10:29;99587.25;;;11.86;100.00
49813;BME280;35706;52.100;5.056;2023-03-13T05:11:29;99571.09;;;11.89;100.00
49813;BME280;35706;52.100;5.056;2023-03-13T05:12:30;99577.84;;;11.91;100.00
49813;BME280;35706;52.100;5.056;2023-03-13T05:13:30;99613.88;;;11.91;100.00
49813;BME280;35706;52.100;5.056;2023-03-13T05:14:30;99575.69;;;11.95;100.00
49813;BME280;35706;52.100;5.056;2023-03-13T05:15:31;99590.50;;;11.96;100.00
49813;BME280;35706;52.100;5.056;2023-03-13T05:16:31;99577.78;;;11.99;100.00
49813;BME280;35706;52.100;5.056;2023-03-13T05:17:31;99597.03;;;12.00;100.00
49813;BME280;35706;52.100;5.056;2023-03-13T05:18:31;99563.78;;;11.99;100.00
49813;BME280;35706;52.100;5.056;2023-03-13T05:19:32;99568.34;;;12.05;100.00
49813;BME280;35706;52.100;5.056;2023-03-13T05:20:32;99559.34;;;11.99;100.00
49813;BME280;35706;52.100;5.056;2023-03-13T05:21:32;99604.59;;;12.03;100.00
49813;BME280;35706;52.100;5.056;2023-03-13T05:22:33;99564.28;;;12.02;100.00
49813;BME280;35706;52.100;5.056;2023-03-13T05:23:33;99582.97;;;12.08;100.00
49813;BME280;35706;52.100;5.056;2023-03-13T05:24:34;99561.44;;;12.04;100.00
49813;BME280;35706;52.100;5.056;2023-03-13T05:25:34;99566.72;;;12.04;100.00
49813;BME280;35706;52.100;5.056;2023-03-13T05:26:34;99558.38;;;12.00;100.00
49813;BME280;35706;52.100;5.056;2023-03-13T05:27:35;99595.88;;;12.02;100.00
49813;BME280;35706;52.100;5.056;2023-03-13T05:28:35;99564.72;;;12.06;100.00